Time;durP1;ratioP1;P1;durP2;ratioP2;P2;SDS_P1;SDS_P2;PMS_P1;PMS_P2;Temp;Humidity;BMP_temperature;BMP_pressure;BME280_temperature;BME280_humidity;BME280_pressure;Samples;Min_cycle;Max_cycle;Signal;HPM_P1;HPM_P2
2023/06/29 00:01:51;;;;;;;0.17;0.17;;;;;;;15.05;100.00;98467.28;5021927;28;20050;-73
2023/06/29 00:04:20;;;;;;;0.20;0.20;;;;;;;15.07;100.00;98463.06;5022595;28;20049;-73
2023/06/29 00:06:49;;;;;;;0.10;0.10;;;;;;;15.11;100.00;98454.94;5021038;28;20046;-73
2023/06/29 00:09:16;;;;;;;0.10;0.10;;;;;;;15.13;100.00;98461.72;4990034;28;20045;-73
2023/06/29 00:11:44;;;;;;;0.10;0.10;;;;;;;15.12;100.00;98460.09;5022535;28;20094;-73
2023/06/29 00:14:10;;;;;;;0.20;0.20;;;;;;;15.11;100.00;98453.00;5025005;28;20111;-73
2023/06/29 00:16:36;;;;;;;0.20;0.20;;;;;;;15.16;100.00;98450.03;5024579;28;20060;-73
2023/06/29 00:19:03;;;;;;;0.20;0.20;;;;;;;15.19;100.00;98448.53;5023964;28;20045;-73
2023/06/29 00:21:29;;;;;;;0.20;0.20;;;;;;;15.23;100.00;98457.75;5021856;28;20053;-73
2023/06/29 00:23:55;;;;;;;0.20;0.20;;;;;;;15.27;100.00;98449.59;5023807;28;20512;-73
2023/06/29 00:26:21;;;;;;;0.20;0.20;;;;;;;15.26;100.00;98448.00;5023380;28;20037;-73
2023/06/29 00:28:49;;;;;;;0.20;0.20;;;;;;;15.25;100.00;98451.91;5021981;28;20053;-73
2023/06/29 00:31:16;;;;;;;0.20;0.20;;;;;;;15.23;100.00;98445.94;4977077;28;20445;-72
2023/06/29 00:33:43;;;;;;;0.20;0.20;;;;;;;15.25;100.00;98451.91;5020132;28;20044;-73
2023/06/29 00:36:09;;;;;;;0.20;0.20;;;;;;;15.23;100.00;98444.00;4989771;28;20108;-72
2023/06/29 00:38:36;;;;;;;0.20;0.20;;;;;;;15.21;100.00;98448.22;5022318;28;20390;-71
2023/06/29 00:41:02;;;;;;;0.20;0.20;;;;;;;15.21;100.00;98442.72;5005755;28;20103;-74
2023/06/29 00:43:28;;;;;;;0.20;0.20;;;;;;;15.23;100.00;98445.94;5021802;28;20060;-73
2023/06/29 00:45:56;;;;;;;0.20;0.20;;;;;;;15.28;100.00;98438.25;5025501;28;20349;-73
2023/06/29 00:48:23;;;;;;;0.10;0.10;;;;;;;15.29;100.00;98439.88;5022518;28;20049;-72
2023/06/29 00:50:50;;;;;;;0.20;0.20;;;;;;;15.32;100.00;98432.88;5021656;28;20059;-73
2023/06/29 00:53:16;;;;;;;0.20;0.20;;;;;;;15.35;100.00;98432.19;5023986;28;20069;-73
2023/06/29 00:55:42;;;;;;;0.10;0.10;;;;;;;15.36;100.00;98427.47;5020868;28;20061;-73
2023/06/29 00:58:08;;;;;;;0.20;0.20;;;;;;;15.34;100.00;98427.03;5021988;28;20535;-74
2023/06/29 01:00:36;;;;;;;0.10;0.10;;;;;;;15.37;100.00;98429.91;5004668;28;20343;-73
2023/06/29 01:03:09;;;;;;;0.20;0.20;;;;;;;15.35;100.00;98417.63;5010375;28;20540;-73
2023/06/29 01:05:35;;;;;;;0.10;0.10;;;;;;;15.32;100.00;98424.63;5013966;28;20547;-73
2023/06/29 01:08:09;;;;;;;0.10;0.10;;;;;;;15.34;100.00;98421.50;5021979;28;20056;-72
2023/06/29 01:10:38;;;;;;;0.20;0.20;;;;;;;15.36;100.00;98419.22;5005785;28;20170;-72
2023/06/29 01:13:08;;;;;;;0.20;0.20;;;;;;;15.40;100.00;98420.16;5004344;28;20069;-72
2023/06/29 01:15:36;;;;;;;0.20;0.20;;;;;;;15.44;100.00;98423.84;5020310;28;20068;-72
2023/06/29 01:18:04;;;;;;;0.20;0.20;;;;;;;15.44;100.00;98427.38;5022424;28;20044;-72
2023/06/29 01:20:33;;;;;;;0.10;0.10;;;;;;;15.44;100.00;98421.88;5022456;28;20092;-72
2023/06/29 01:23:05;;;;;;;0.20;0.20;;;;;;;15.48;100.00;98423.97;5021873;28;20216;-73
2023/06/29 01:25:36;;;;;;;0.20;0.20;;;;;;;15.45;100.00;98415.25;5023202;28;20061;-71
2023/06/29 01:28:05;;;;;;;0.20;0.20;;;;;;;15.42;100.00;98418.66;5004932;28;20057;-72
2023/06/29 01:30:45;;;;;;;0.20;0.20;;;;;;;15.39;100.00;98424.06;5004908;28;20144;-73
2023/06/29 01:33:14;;;;;;;0.20;0.20;;;;;;;15.41;100.00;98422.56;5024465;28;20041;-72
2023/06/29 01:35:41;;;;;;;0.20;0.20;;;;;;;15.41;100.00;98419.81;5021955;28;20087;-72
2023/06/29 01:38:13;;;;;;;0.20;0.20;;;;;;;15.45;100.00;98420.75;5020047;28;20046;-72
2023/06/29 01:40:46;;;;;;;0.20;0.20;;;;;;;15.37;100.00;98410.63;5004485;28;20045;-72
2023/06/29 01:43:14;;;;;;;0.20;0.20;;;;;;;15.42;100.00;98406.88;5018811;28;20053;-73
2023/06/29 01:45:41;;;;;;;0.10;0.10;;;;;;;15.46;100.00;98399.53;5023325;28;20056;-73
2023/06/29 01:48:07;;;;;;;0.20;0.20;;;;;;;15.48;100.00;98399.97;4988776;28;20050;-73
2023/06/29 01:50:34;;;;;;;0.20;0.20;;;;;;;15.51;100.00;98398.50;5021005;28;20041;-72
2023/06/29 01:53:04;;;;;;;0.20;0.20;;;;;;;15.50;100.00;98397.69;5023032;28;20508;-72
2023/06/29 01:55:30;;;;;;;0.20;0.20;;;;;;;15.50;100.00;98396.88;5020562;28;20100;-72
2023/06/29 01:57:58;;;;;;;0.20;0.20;;;;;;;15.53;100.00;98397.03;5005544;28;20045;-73
2023/06/29 02:00:24;;;;;;;0.20;0.20;;;;;;;15.52;100.00;98397.34;5003014;28;20052;-72
2023/06/29 02:02:52;;;;;;;0.20;0.20;;;;;;;15.49;100.00;98400.78;5023987;28;20052;-73
2023/06/29 02:05:19;;;;;;;0.20;0.20;;;;;;;15.50;100.00;98405.94;5007377;28;20077;-73
2023/06/29 02:07:46;;;;;;;0.20;0.20;;;;;;;15.49;100.00;98406.31;5023985;28;20046;-73
2023/06/29 02:10:13;;;;;;;0.20;0.20;;;;;;;15.49;100.00;98403.53;5025455;28;20057;-74
2023/06/29 02:12:40;;;;;;;0.20;0.20;;;;;;;15.40;100.00;98409.16;5006487;28;20520;-73
2023/06/29 02:15:09;;;;;;;0.20;0.20;;;;;;;15.30;100.00;98411.19;5025697;28;20069;-73
2023/06/29 02:17:35;;;;;;;0.20;0.20;;;;;;;15.17;100.00;98401.28;5005103;28;20045;-73
2023/06/29 02:20:21;;;;;;;0.20;0.20;;;;;;;15.09;100.00;98402.19;5024815;28;20069;-72
2023/06/29 02:22:48;;;;;;;0.20;0.20;;;;;;;15.00;100.00;98410.53;5022857;28;20048;-73
2023/06/29 02:25:14;;;;;;;0.20;0.20;;;;;;;14.91;100.00;98409.81;5023636;28;20046;-73
2023/06/29 02:27:41;;;;;;;0.20;0.20;;;;;;;14.81;100.00;98406.31;5024547;28;20053;-72
2023/06/29 02:30:10;;;;;;;0.20;0.20;;;;;;;14.77;100.00;98415.59;5022604;28;20053;-73
2023/06/29 02:32:36;;;;;;;0.20;0.20;;;;;;;14.74;100.00;98419.81;5023547;28;20042;-72
2023/06/29 02:35:04;;;;;;;0.20;0.20;;;;;;;14.68;100.00;98419.19;5006281;28;20072;-72
2023/06/29 02:37:31;;;;;;;0.20;0.20;;;;;;;14.68;100.00;98419.19;5007825;28;20045;-72
2023/06/29 02:39:57;;;;;;;0.13;0.13;;;;;;;14.74;100.00;98417.06;5022557;28;20049;-71
2023/06/29 02:42:23;;;;;;;0.10;0.10;;;;;;;14.83;100.00;98428.00;5001563;28;20037;-72
2023/06/29 02:44:50;;;;;;;0.10;0.10;;;;;;;14.89;100.00;98432.97;5004467;28;20077;-72
2023/06/29 02:47:17;;;;;;;0.20;0.20;;;;;;;14.96;100.00;98429.66;4989890;28;20050;-71
2023/06/29 02:49:44;;;;;;;0.20;0.20;;;;;;;15.02;100.00;98439.31;5006965;28;20567;-71
2023/06/29 02:52:14;;;;;;;0.20;0.20;;;;;;;15.03;99.91;98442.88;4979721;28;20420;-71
2023/06/29 02:54:40;;;;;;;0.20;0.20;;;;;;;15.04;98.50;98444.50;5005219;28;20068;-71
2023/06/29 02:57:06;;;;;;;0.20;0.20;;;;;;;15.04;98.40;98455.50;5006496;28;20515;-71
2023/06/29 02:59:33;;;;;;;0.20;0.20;;;;;;;15.09;97.20;98452.53;4990587;28;20528;-71
2023/06/29 03:02:00;;;;;;;0.20;0.20;;;;;;;15.03;96.49;98453.88;5007773;28;20049;-71
2023/06/29 03:04:27;;;;;;;0.17;0.17;;;;;;;14.92;96.01;98459.00;5004958;28;20051;-71
2023/06/29 03:06:54;;;;;;;0.10;0.10;;;;;;;14.80;96.64;98461.69;5025766;28;20059;-71
2023/06/29 03:09:20;;;;;;;0.20;0.20;;;;;;;14.84;97.26;98470.88;5007056;28;20465;-71
2023/06/29 03:11:46;;;;;;;0.20;0.20;;;;;;;14.89;97.21;98474.22;5023321;28;20049;-71
2023/06/29 03:14:13;;;;;;;0.20;0.20;;;;;;;14.93;96.97;98466.13;5021514;28;20119;-71
2023/06/29 03:16:42;;;;;;;0.20;0.20;;;;;;;14.97;96.88;98471.72;5024571;28;20237;-71
2023/06/29 03:19:08;;;;;;;0.20;0.20;;;;;;;14.98;96.39;98476.91;5024654;28;20049;-71
2023/06/29 03:21:37;;;;;;;0.20;0.20;;;;;;;15.04;95.87;98483.03;5028976;28;20064;-71
2023/06/29 03:24:04;;;;;;;0.20;0.20;;;;;;;15.03;94.58;98484.94;5003257;28;20096;-71
2023/06/29 03:26:30;;;;;;;0.20;0.20;;;;;;;15.01;93.82;98497.47;5022921;28;20054;-71
2023/06/29 03:28:56;;;;;;;0.20;0.20;;;;;;;14.96;93.50;98481.94;5022008;28;20060;-70
2023/06/29 03:31:22;;;;;;;0.20;0.20;;;;;;;14.95;92.82;98480.34;5005665;28;20151;-71
2023/06/29 03:33:48;;;;;;;0.20;0.20;;;;;;;14.97;91.96;98482.75;5008993;28;20045;-71
2023/06/29 03:36:15;;;;;;;0.20;0.20;;;;;;;15.01;91.78;98486.44;5005669;28;20091;-71
2023/06/29 03:38:43;;;;;;;0.20;0.20;;;;;;;15.00;91.21;98480.13;5024807;28;20064;-70
2023/06/29 03:41:09;;;;;;;0.20;0.20;;;;;;;15.01;91.15;98475.44;5005155;28;20579;-71
2023/06/29 03:43:35;;;;;;;0.20;0.20;;;;;;;15.07;91.11;98473.28;5004926;28;20065;-71
2023/06/29 03:46:01;;;;;;;0.20;0.20;;;;;;;15.05;90.64;98487.38;5021904;28;20077;-74
2023/06/29 03:48:27;;;;;;;0.20;0.20;;;;;;;15.02;90.78;98491.59;5025132;28;20045;-73
2023/06/29 03:50:54;;;;;;;0.20;0.20;;;;;;;14.94;90.56;98494.44;5022877;28;20045;-73
2023/06/29 03:53:21;;;;;;;0.10;0.10;;;;;;;14.87;90.89;98473.75;5025498;28;20612;-71
2023/06/29 03:55:49;;;;;;;0.17;0.17;;;;;;;14.86;90.96;98477.66;5020792;28;20056;-71
2023/06/29 03:58:15;;;;;;;0.20;0.20;;;;;;;14.85;91.11;98483.50;5004348;28;20607;-71
2023/06/29 04:00:41;;;;;;;0.10;0.10;;;;;;;14.82;91.16;98484.94;5023491;28;20053;-72
2023/06/29 04:03:08;;;;;;;0.20;0.20;;;;;;;14.74;91.16;98480.34;5022539;28;20524;-71
2023/06/29 04:05:34;;;;;;;0.20;0.20;;;;;;;14.65;91.22;98488.63;4990660;28;20493;-71
2023/06/29 04:08:05;;;;;;;0.10;0.10;;;;;;;14.60;91.64;98483.31;5022258;28;20144;-71
2023/06/29 04:10:32;;;;;;;0.20;0.20;;;;;;;14.59;92.02;98489.94;5022637;28;20065;-71
2023/06/29 04:13:00;;;;;;;0.10;0.10;;;;;;;14.59;92.54;98482.50;5021617;28;20049;-71
2023/06/29 04:15:26;;;;;;;0.20;0.20;;;;;;;14.53;92.69;98497.59;5023020;28;20516;-71
2023/06/29 04:17:52;;;;;;;0.10;0.10;;;;;;;14.48;92.78;98484.03;5023029;28;20173;-70
2023/06/29 04:20:18;;;;;;;0.13;0.13;;;;;;;14.49;93.07;98471.88;5024490;28;20057;-71
2023/06/29 04:22:45;;;;;;;0.20;0.20;;;;;;;14.55;93.08;98475.25;5021258;28;20041;-72
2023/06/29 04:25:12;;;;;;;0.20;0.20;;;;;;;14.58;92.51;98478.16;5024823;28;20544;-71
2023/06/29 04:27:38;;;;;;;0.20;0.20;;;;;;;14.59;92.03;98471.50;5021674;28;20148;-71
2023/06/29 04:30:08;;;;;;;0.20;0.20;;;;;;;14.53;91.95;98467.34;5022213;28;20056;-71
2023/06/29 04:32:35;;;;;;;0.20;0.20;;;;;;;14.56;92.41;98482.38;5023037;28;20045;-71
2023/06/29 04:35:01;;;;;;;0.20;0.20;;;;;;;14.59;92.20;98485.25;5021745;28;20137;-71
2023/06/29 04:37:36;;;;;;;0.20;0.20;;;;;;;14.59;91.30;98485.25;5024190;28;20147;-71
2023/06/29 04:40:04;;;;;;;0.20;0.20;;;;;;;14.61;90.23;98487.69;5003256;28;20042;-71
2023/06/29 04:42:31;;;;;;;0.20;0.20;;;;;;;14.58;90.50;98486.41;5003192;28;20050;-71
2023/06/29 04:44:59;;;;;;;0.20;0.20;;;;;;;14.61;90.38;98496.72;5009073;28;20421;-71
2023/06/29 04:47:32;;;;;;;0.20;0.20;;;;;;;14.58;90.92;98489.16;5023162;28;20096;-71
2023/06/29 04:49:58;;;;;;;0.20;0.20;;;;;;;14.61;90.28;98496.72;5021222;28;20052;-71
2023/06/29 04:52:26;;;;;;;0.20;0.20;;;;;;;14.66;90.21;98492.16;5003321;28;20475;-71
2023/06/29 04:54:53;;;;;;;0.20;0.20;;;;;;;14.81;90.10;98497.09;5022584;28;20057;-71
2023/06/29 04:57:19;;;;;;;0.20;0.20;;;;;;;14.98;89.87;98500.88;5003511;28;20053;-71
2023/06/29 04:59:45;;;;;;;0.20;0.20;;;;;;;15.20;89.68;98487.91;5003790;28;20048;-71
2023/06/29 05:02:11;;;;;;;0.20;0.20;;;;;;;15.38;87.79;98492.09;5020360;28;20068;-71
2023/06/29 05:04:39;;;;;;;0.30;0.30;;;;;;;15.63;86.69;98489.44;5020680;28;20106;-71
2023/06/29 05:07:05;;;;;;;0.30;0.30;;;;;;;15.92;85.64;98487.69;5001746;28;20489;-71
2023/06/29 05:09:31;;;;;;;0.22;0.22;;;;;;;16.26;84.23;98482.03;5005226;28;20559;-72
2023/06/29 05:11:57;;;;;;;0.20;0.20;;;;;;;16.49;82.33;98482.38;5014610;28;20416;-71
2023/06/29 05:14:24;;;;;;;0.20;0.20;;;;;;;16.68;80.26;98486.47;5023334;28;20049;-72
2023/06/29 05:16:50;;;;;;;0.20;0.20;;;;;;;16.73;78.54;98489.03;5020680;28;20050;-71
2023/06/29 05:19:16;;;;;;;0.30;0.30;;;;;;;16.73;78.27;98491.78;5021717;28;20516;-71
2023/06/29 05:21:44;;;;;;;0.20;0.20;;;;;;;16.80;78.03;98486.47;4999933;28;20140;-72
2023/06/29 05:24:10;;;;;;;0.20;0.20;;;;;;;16.95;76.67;98492.41;4997255;28;20041;-74
2023/06/29 05:26:37;;;;;;;0.20;0.20;;;;;;;17.03;75.62;98491.50;5008918;28;20539;-75
2023/06/29 05:29:03;;;;;;;0.20;0.20;;;;;;;17.07;75.74;98502.63;4995185;28;20054;-75
2023/06/29 05:31:29;;;;;;;0.20;0.20;;;;;;;16.99;75.85;98501.63;5009982;28;20053;-75
2023/06/29 05:33:55;;;;;;;0.20;0.20;;;;;;;17.00;76.19;98495.75;5020197;28;20041;-74
2023/06/29 05:36:22;;;;;;;0.30;0.30;;;;;;;17.07;76.27;98500.69;5016574;28;20045;-74
2023/06/29 05:38:50;;;;;;;0.20;0.20;;;;;;;17.25;75.69;98497.63;5001789;28;20069;-72
2023/06/29 05:41:16;;;;;;;0.20;0.20;;;;;;;17.29;74.03;98504.06;4671710;28;10000508;-73
2023/06/29 05:43:42;;;;;;;0.30;0.30;;;;;;;17.20;74.46;98506.19;5013797;28;20363;-73
2023/06/29 05:46:09;;;;;;;0.20;0.20;;;;;;;17.40;74.01;98498.81;4995830;28;20524;-73
2023/06/29 05:48:35;;;;;;;0.30;0.30;;;;;;;17.57;72.69;98506.81;5016373;28;20056;-74
2023/06/29 05:51:01;;;;;;;0.20;0.20;;;;;;;17.61;71.61;98504.13;5010335;28;20054;-75
2023/06/29 05:53:27;;;;;;;0.20;0.20;;;;;;;17.37;71.99;98503.09;5011361;28;20061;-73
2023/06/29 05:55:55;;;;;;;0.28;0.28;;;;;;;17.27;72.78;98503.59;5008351;28;20042;-73
2023/06/29 05:58:23;;;;;;;0.30;0.30;;;;;;;17.46;72.02;98510.41;5009144;28;20120;-73
2023/06/29 06:00:50;;;;;;;0.30;0.30;;;;;;;17.60;71.31;98508.06;5011311;28;20058;-73
2023/06/29 06:03:17;;;;;;;0.30;0.30;;;;;;;17.59;70.55;98492.63;5014697;28;20049;-72
2023/06/29 06:05:43;;;;;;;0.30;0.30;;;;;;;17.78;70.92;98502.19;5025580;28;20087;-73
2023/06/29 06:08:09;;;;;;;0.20;0.20;;;;;;;17.89;69.75;98499.72;5001134;28;20537;-72
2023/06/29 06:10:35;;;;;;;0.30;0.30;;;;;;;18.10;68.71;98502.22;5009282;28;20045;-72
2023/06/29 06:13:04;;;;;;;0.30;0.30;;;;;;;18.37;67.89;98496.97;4990959;28;20077;-72
2023/06/29 06:15:30;;;;;;;0.30;0.30;;;;;;;18.48;67.51;98489.72;4984187;28;20517;-73
2023/06/29 06:17:56;;;;;;;0.30;0.30;;;;;;;18.51;67.70;98483.47;4987263;28;20822;-73
2023/06/29 06:20:23;;;;;;;0.30;0.30;;;;;;;18.65;67.58;98494.03;5013282;28;20064;-73
2023/06/29 06:22:49;;;;;;;0.30;0.30;;;;;;;18.62;67.32;98491.22;4997469;28;20168;-73
2023/06/29 06:25:17;;;;;;;0.20;0.20;;;;;;;18.46;66.76;98486.50;5014239;28;20057;-72
2023/06/29 06:27:44;;;;;;;0.30;0.30;;;;;;;18.20;66.88;98489.84;4990128;28;20137;-73
2023/06/29 06:30:12;;;;;;;0.30;0.30;;;;;;;18.31;67.50;98487.34;5015977;28;20144;-72
2023/06/29 06:32:39;;;;;;;0.30;0.30;;;;;;;18.46;66.54;98489.28;5019088;28;20050;-73
2023/06/29 06:35:07;;;;;;;0.30;0.30;;;;;;;18.45;67.17;98487.69;5008295;28;20054;-73
2023/06/29 06:37:35;;;;;;;0.30;0.30;;;;;;;18.73;66.60;98495.00;5018532;28;20502;-74
2023/06/29 06:40:07;;;;;;;0.30;0.30;;;;;;;19.03;65.74;98500.03;4990944;28;20076;-73
2023/06/29 06:42:34;;;;;;;0.40;0.40;;;;;;;19.37;64.67;98497.56;5015166;28;20561;-72
2023/06/29 06:45:05;;;;;;;0.40;0.40;;;;;;;19.72;62.64;98493.03;5014242;28;20119;-73
2023/06/29 06:47:35;;;;;;;0.40;0.40;;;;;;;20.23;61.10;98494.72;5019775;28;20049;-74
2023/06/29 06:50:02;;;;;;;0.32;0.32;;;;;;;20.71;59.59;98498.22;5019995;28;20041;-73
2023/06/29 06:52:30;;;;;;;0.30;0.30;;;;;;;20.60;58.91;98498.84;5017798;28;20056;-73
2023/06/29 06:54:56;;;;;;;0.30;0.30;;;;;;;20.18;59.32;98497.00;5022022;28;20153;-74
2023/06/29 06:57:22;;;;;;;0.30;0.30;;;;;;;20.01;60.01;98501.91;5023597;28;20538;-74
2023/06/29 06:59:49;;;;;;;0.30;0.30;;;;;;;20.17;60.42;98493.47;5018711;28;20397;-73
2023/06/29 07:02:15;;;;;;;0.30;0.30;;;;;;;20.47;60.12;98501.06;5020246;28;20659;-73
2023/06/29 07:04:43;;;;;;;0.30;0.30;;;;;;;20.61;58.10;98513.56;5019748;28;20543;-73
2023/06/29 07:07:09;;;;;;;0.40;0.40;;;;;;;20.78;57.64;98501.09;5016665;28;20055;-73
2023/06/29 07:09:36;;;;;;;0.40;0.40;;;;;;;20.91;55.90;98498.91;5019566;28;20049;-73
2023/06/29 07:12:02;;;;;;;0.30;0.30;;;;;;;21.01;55.79;98497.47;5019466;28;20049;-74
2023/06/29 07:14:28;;;;;;;0.30;0.30;;;;;;;21.07;55.85;98495.94;5016052;28;20505;-73
2023/06/29 07:16:55;;;;;;;0.30;0.30;;;;;;;20.93;56.17;98496.56;5010374;28;20049;-74
2023/06/29 07:19:23;;;;;;;0.30;0.30;;;;;;;20.63;56.82;98494.53;5021639;28;20046;-73
2023/06/29 07:21:51;;;;;;;0.40;0.40;;;;;;;20.42;56.90;98501.34;5022910;28;20057;-74
2023/06/29 07:24:17;;;;;;;0.40;0.40;;;;;;;20.14;55.78;98496.16;5018413;28;20045;-74
2023/06/29 07:26:43;;;;;;;0.40;0.40;;;;;;;20.31;55.96;98501.19;5018031;28;20095;-73
2023/06/29 07:29:10;;;;;;;0.30;0.30;;;;;;;20.63;54.89;98494.53;5021317;28;20041;-73
2023/06/29 07:31:36;;;;;;;0.30;0.30;;;;;;;20.58;55.44;98494.84;5015948;28;20362;-73
2023/06/29 07:34:02;;;;;;;0.40;0.40;;;;;;;20.72;54.95;98494.28;5023383;28;20150;-73
2023/06/29 07:36:29;;;;;;;0.30;0.30;;;;;;;21.04;54.54;98482.81;5025698;28;20095;-73
2023/06/29 07:38:57;;;;;;;0.30;0.30;;;;;;;20.90;54.92;98480.63;5022935;28;20049;-73
2023/06/29 07:41:23;;;;;;;0.30;0.30;;;;;;;20.83;54.14;98476.59;5020304;28;20677;-73
2023/06/29 07:43:52;;;;;;;0.30;0.30;;;;;;;20.92;53.78;98470.75;5021466;28;20041;-73
2023/06/29 07:46:18;;;;;;;0.30;0.30;;;;;;;21.12;53.54;98476.16;5026107;28;20121;-74
2023/06/29 07:48:46;;;;;;;0.30;0.30;;;;;;;21.50;52.17;98479.78;5024570;28;20135;-73
2023/06/29 07:51:12;;;;;;;0.30;0.30;;;;;;;21.93;51.11;98493.31;5026028;28;20053;-73
2023/06/29 07:53:38;;;;;;;0.30;0.30;;;;;;;22.09;50.57;98467.22;5024414;28;20061;-73
2023/06/29 07:56:06;;;;;;;0.40;0.40;;;;;;;22.10;49.85;98480.75;5019250;28;20144;-73
2023/06/29 07:58:32;;;;;;;0.30;0.30;;;;;;;22.27;49.26;98474.91;5017166;28;20140;-72
2023/06/29 08:00:58;;;;;;;0.30;0.30;;;;;;;21.98;49.73;98475.50;5021503;28;20103;-73
2023/06/29 08:03:25;;;;;;;0.30;0.30;;;;;;;21.82;50.27;98472.94;5018190;28;20072;-73
2023/06/29 08:05:52;;;;;;;0.35;0.35;;;;;;;22.03;49.72;98466.00;5016539;28;20056;-73
2023/06/29 08:08:20;;;;;;;0.37;0.37;;;;;;;22.42;48.39;98462.69;5004885;28;20488;-73
2023/06/29 08:10:47;;;;;;;0.40;0.40;;;;;;;22.77;47.72;98471.69;5023002;28;20413;-73
2023/06/29 08:13:15;;;;;;;0.40;0.40;;;;;;;23.21;45.71;98479.06;5005333;28;20589;-73
2023/06/29 08:15:41;;;;;;;0.30;0.30;;;;;;;23.32;44.45;98475.50;5012668;28;20069;-73
2023/06/29 08:18:07;;;;;;;0.40;0.40;;;;;;;23.38;44.40;98471.16;5025873;28;20100;-73
2023/06/29 08:20:34;;;;;;;0.40;0.40;;;;;;;23.41;44.52;98469.56;5020796;28;20147;-72
2023/06/29 08:23:00;;;;;;;0.40;0.40;;;;;;;23.61;43.54;98458.84;5023887;28;20111;-72
2023/06/29 08:25:27;;;;;;;0.43;0.43;;;;;;;23.84;43.26;98469.63;5019038;28;20053;-73
2023/06/29 08:27:53;;;;;;;0.40;0.40;;;;;;;24.14;42.12;98465.69;5017388;28;20603;-72
2023/06/29 08:30:24;;;;;;;0.30;0.30;;;;;;;24.47;41.90;98472.03;5016846;28;20571;-72
2023/06/29 08:32:51;;;;;;;0.40;0.40;;;;;;;24.00;42.25;98469.25;5012097;28;20045;-73
2023/06/29 08:35:17;;;;;;;0.40;0.40;;;;;;;24.49;41.88;98468.84;5015431;28;20112;-73
2023/06/29 08:37:43;;;;;;;0.50;0.50;;;;;;;24.98;40.71;98460.78;5022658;28;20111;-72
2023/06/29 08:40:11;;;;;;;0.40;0.40;;;;;;;24.90;40.74;98471.19;5023209;28;20142;-73
2023/06/29 08:42:37;;;;;;;0.30;0.30;;;;;;;25.13;39.61;98455.09;4993880;28;20535;-73
2023/06/29 08:45:05;;;;;;;0.30;0.30;;;;;;;24.56;40.68;98457.66;5006216;28;20041;-73
2023/06/29 08:47:37;;;;;;;0.60;0.60;;;;;;;24.32;40.95;98459.28;5020537;28;20225;-74
2023/06/29 08:50:05;;;;;;;0.50;0.50;;;;;;;24.67;40.04;98457.66;5014531;28;20149;-73
2023/06/29 08:52:34;;;;;;;0.60;0.60;;;;;;;25.22;38.35;98449.88;5020844;28;20547;-73
2023/06/29 08:55:02;;;;;;;0.50;0.50;;;;;;;25.86;36.95;98459.09;5018223;28;20065;-73
2023/06/29 08:57:32;;;;;;;0.50;0.50;;;;;;;26.33;35.85;98453.13;5018850;28;20923;-73
2023/06/29 09:00:04;;;;;;;0.50;0.50;;;;;;;26.67;36.07;98447.97;5000654;28;20049;-74
2023/06/29 09:02:36;;;;;;;0.60;0.60;;;;;;;26.94;36.55;98436.88;5021915;28;20076;-74
2023/06/29 09:05:03;;;;;;;0.40;0.40;;;;;;;27.00;37.72;98443.59;4997399;28;20093;-73
2023/06/29 09:07:31;;;;;;;0.30;0.30;;;;;;;26.24;39.25;98446.41;5019585;28;20204;-73
2023/06/29 09:09:58;;;;;;;0.40;0.40;;;;;;;25.07;41.39;98437.97;5039162;28;20062;-73
2023/06/29 09:12:27;;;;;;;0.40;0.40;;;;;;;24.41;43.07;98445.72;5002738;28;20045;-73
2023/06/29 09:14:58;;;;;;;0.30;0.30;;;;;;;23.84;44.09;98438.94;5004518;28;20052;-73
2023/06/29 09:17:26;;;;;;;0.30;0.30;;;;;;;23.32;44.64;98433.69;5040954;28;20038;-72
2023/06/29 09:19:55;;;;;;;0.40;0.40;;;;;;;23.12;44.92;98433.22;5023074;28;20096;-73
2023/06/29 09:22:22;;;;;;;0.50;0.50;;;;;;;23.25;44.94;98428.06;4999594;28;20057;-73
2023/06/29 09:24:49;;;;;;;0.30;0.30;;;;;;;23.44;45.23;98424.97;5017726;28;20133;-73
2023/06/29 09:27:17;;;;;;;0.30;0.30;;;;;;;22.86;46.64;98410.03;5020664;28;20156;-72
2023/06/29 09:29:52;;;;;;;0.60;0.60;;;;;;;22.98;47.37;98409.69;4991501;28;20037;-73
2023/06/29 09:32:20;;;;;;;0.60;0.60;;;;;;;24.57;43.89;98406.16;5016678;28;20452;-72
2023/06/29 09:34:48;;;;;;;0.30;0.30;;;;;;;25.06;42.55;98409.22;5015868;28;20136;-73
2023/06/29 09:37:17;;;;;;;0.50;0.50;;;;;;;25.06;42.38;98416.81;5018989;28;20041;-72
2023/06/29 09:39:58;;;;;;;0.80;0.80;;;;;;;25.39;41.78;98406.22;5035347;28;20072;-73
2023/06/29 09:42:27;;;;;;;1.45;0.40;;;;;;;26.42;39.33;98393.81;5020485;28;20048;-73
2023/06/29 09:44:54;;;;;;;0.40;0.40;;;;;;;26.08;39.78;98400.13;5013239;28;20072;-73
2023/06/29 09:47:23;;;;;;;0.80;0.80;;;;;;;26.02;40.48;98384.97;5020878;28;20067;-73
2023/06/29 09:49:50;;;;;;;0.80;0.80;;;;;;;27.35;38.19;98386.66;5020609;28;20069;-73
2023/06/29 09:52:18;;;;;;;0.30;0.30;;;;;;;27.82;37.02;98374.72;5016716;28;20046;-73
2023/06/29 09:54:44;;;;;;;0.57;0.57;;;;;;;27.04;38.09;98373.44;5013310;28;20076;-73
2023/06/29 09:57:11;;;;;;;0.40;0.40;;;;;;;26.99;37.99;98368.31;5015147;28;20049;-73
2023/06/29 09:59:41;;;;;;;0.40;0.40;;;;;;;26.44;39.06;98374.56;5003322;28;20053;-73
2023/06/29 10:02:08;;;;;;;0.40;0.40;;;;;;;25.56;40.38;98376.56;5018891;28;20045;-73
2023/06/29 10:04:35;;;;;;;0.80;0.80;;;;;;;25.45;39.99;98365.44;5025062;28;20057;-73
2023/06/29 10:07:05;;;;;;;0.80;0.80;;;;;;;26.50;37.91;98352.50;5009032;28;20148;-73
2023/06/29 10:09:39;;;;;;;0.80;0.80;;;;;;;26.24;37.50;98349.19;5024604;28;20049;-73
2023/06/29 10:12:08;;;;;;;0.40;0.40;;;;;;;25.55;38.72;98358.19;5017647;28;20045;-73
2023/06/29 10:14:36;;;;;;;1.02;1.00;;;;;;;26.22;37.60;98357.22;5020011;28;20046;-74
2023/06/29 10:17:12;;;;;;;1.00;1.00;;;;;;;27.34;36.25;98368.25;4985480;28;20100;-73
2023/06/29 10:19:42;;;;;;;0.90;0.90;;;;;;;28.28;34.84;98361.09;5003479;28;20558;-73
2023/06/29 10:22:11;;;;;;;0.80;0.80;;;;;;;29.04;33.72;98364.41;5015586;28;20312;-73
2023/06/29 10:24:43;;;;;;;0.70;0.70;;;;;;;29.18;32.58;98349.19;5018111;28;20170;-73
2023/06/29 10:27:10;;;;;;;0.60;0.60;;;;;;;28.43;33.70;98351.16;5018642;28;20072;-73
2023/06/29 10:29:44;;;;;;;0.50;0.50;;;;;;;27.35;35.24;98350.97;5022279;28;20092;-73
2023/06/29 10:32:28;;;;;;;0.60;0.60;;;;;;;26.68;36.21;98340.28;5003407;28;20050;-73
2023/06/29 10:35:03;;;;;;;0.60;0.60;;;;;;;26.45;36.64;98353.75;5023971;28;20046;-73
2023/06/29 10:37:33;;;;;;;0.40;0.40;;;;;;;26.06;37.21;98343.72;5004585;28;20519;-73
2023/06/29 10:40:05;;;;;;;0.40;0.40;;;;;;;25.42;38.40;98340.25;5019311;28;20057;-73
2023/06/29 10:42:54;;;;;;;0.50;0.50;;;;;;;25.08;38.88;98326.94;5016321;28;20057;-73
2023/06/29 10:45:33;;;;;;;0.40;0.40;;;;;;;24.89;39.41;98332.63;5022081;28;20064;-73
2023/06/29 10:48:07;;;;;;;0.40;0.40;;;;;;;24.49;40.24;98335.56;5012297;28;20058;-73
2023/06/29 10:50:39;;;;;;;0.30;0.30;;;;;;;23.97;40.99;98327.75;5023984;28;20115;-73
2023/06/29 10:53:08;;;;;;;0.40;0.40;;;;;;;23.39;42.11;98326.94;5020601;28;20050;-73
2023/06/29 10:55:41;;;;;;;0.30;0.30;;;;;;;22.85;42.28;98305.34;5038914;28;20184;-72
2023/06/29 10:58:17;;;;;;;0.30;0.30;;;;;;;22.34;43.75;98311.50;5025111;28;20049;-72
2023/06/29 11:00:44;;;;;;;0.20;0.20;;;;;;;22.06;44.50;98312.97;5008024;28;20046;-72
2023/06/29 11:03:12;;;;;;;0.30;0.30;;;;;;;21.89;44.86;98324.78;5017374;28;20064;-71
2023/06/29 11:05:38;;;;;;;0.30;0.30;;;;;;;21.73;45.66;98330.66;5018065;28;20046;-72
2023/06/29 11:08:07;;;;;;;0.28;0.28;;;;;;;21.53;46.27;98333.63;5018689;28;20168;-72
2023/06/29 11:10:34;;;;;;;0.20;0.20;;;;;;;21.34;46.51;98334.66;5018575;28;20049;-72
2023/06/29 11:13:06;;;;;;;;;;;;;;;21.29;47.15;98327.47;5020324;28;20041;-71
2023/06/29 11:15:33;;;;;;;0.30;0.30;;;;;;;21.22;47.45;98330.16;5023149;28;19975;-72
2023/06/29 11:18:04;;;;;;;0.22;0.22;;;;;;;21.14;47.74;98329.31;5023252;28;20590;-72
2023/06/29 11:20:30;;;;;;;0.20;0.20;;;;;;;21.01;48.34;98323.22;5011521;28;20373;-72
2023/06/29 11:22:57;;;;;;;0.20;0.20;;;;;;;20.94;48.96;98337.06;5022030;28;20396;-71
2023/06/29 11:25:26;;;;;;;0.20;0.20;;;;;;;20.82;48.95;98333.34;4999548;28;20066;-72
2023/06/29 11:27:52;;;;;;;0.20;0.20;;;;;;;20.67;49.50;98349.00;5005441;28;20092;-72
2023/06/29 11:30:21;;;;;;;0.22;0.22;;;;;;;20.49;50.47;98337.72;5017080;28;20045;-72
2023/06/29 11:32:50;;;;;;;0.20;0.20;;;;;;;20.26;52.30;98344.13;5003103;28;20056;-72
2023/06/29 11:35:20;;;;;;;0.20;0.20;;;;;;;20.01;53.59;98356.88;5017296;28;20236;-72